Time;durP1;ratioP1;P1;durP2;ratioP2;P2;SDS_P1;SDS_P2;PMS_P1;PMS_P2;Temp;Humidity;BMP_temperature;BMP_pressure;BME280_temperature;BME280_humidity;BME280_pressure;Samples;Min_cycle;Max_cycle;Signal;HPM_P1;HPM_P2
2023/10/09 00:00:58;;;;;;;5.07;2.08;;;;;;;19.98;57.31;95337.03;5048574;28;20465;-73
2023/10/09 00:03:24;;;;;;;8.93;2.00;;;;;;;20.05;56.64;95334.16;5048758;28;20477;-72
2023/10/09 00:05:53;;;;;;;7.47;1.83;;;;;;;20.09;56.23;95324.56;5049290;28;20175;-72
2023/10/09 00:08:21;;;;;;;6.53;1.90;;;;;;;20.12;56.38;95323.25;5048821;28;20403;-72
2023/10/09 00:10:54;;;;;;;8.77;2.20;;;;;;;20.10;56.57;95325.34;5049231;28;20167;-72
2023/10/09 00:13:28;;;;;;;6.57;2.15;;;;;;;20.11;56.43;95335.00;5049345;28;20199;-71
2023/10/09 01:05:52;;;;;;;4.35;1.75;;;;;;;19.09;57.74;95333.34;5049069;28;21080;-72
2023/10/09 01:09:11;;;;;;;4.63;2.00;;;;;;;18.99;57.71;95342.06;5051130;28;20451;-72
2023/10/09 01:11:47;;;;;;;9.45;1.58;;;;;;;18.98;57.48;95343.09;4971483;28;20194;-71
2023/10/09 01:14:13;;;;;;;6.37;2.00;;;;;;;18.94;57.15;95351.88;4971050;28;20437;-71
2023/10/09 01:16:43;;;;;;;3.97;1.83;;;;;;;18.92;56.88;95370.00;4971193;28;20212;-71
2023/10/09 01:19:24;;;;;;;3.72;1.60;;;;;;;18.77;57.13;95351.94;4970412;28;20417;-71
2023/10/09 01:21:53;;;;;;;3.92;1.42;;;;;;;18.76;57.15;95367.16;4971141;28;20823;-71
2023/10/09 01:24:26;;;;;;;7.20;2.10;;;;;;;18.66;57.30;95350.22;4971174;28;20461;-71
2023/10/09 01:26:54;;;;;;;4.60;1.60;;;;;;;18.59;57.36;95357.59;4970910;28;20209;-71
2023/10/09 01:29:29;;;;;;;4.65;1.63;;;;;;;18.44;57.58;95360.84;4970474;28;20801;-71
2023/10/09 01:31:56;;;;;;;4.47;1.58;;;;;;;18.32;57.94;95371.63;4970955;28;20335;-71
2023/10/09 01:37:25;;;;;;;9.63;2.20;;;;;;;18.24;58.62;95396.03;4969602;28;20980;-71
2023/10/09 01:39:52;;;;;;;5.60;1.80;;;;;;;18.25;58.67;95394.19;4969588;28;20440;-71
2023/10/09 01:44:51;;;;;;;5.43;1.70;;;;;;;18.27;58.56;95400.06;5051674;28;20186;-72
2023/10/09 01:47:18;;;;;;;3.22;1.70;;;;;;;18.26;58.48;95393.09;5051544;28;20171;-72
2023/10/09 01:49:48;;;;;;;7.68;1.95;;;;;;;18.27;58.33;95400.06;5051497;28;20190;-72
2023/10/09 01:52:18;;;;;;;5.82;2.22;;;;;;;18.24;58.05;95406.72;5050696;28;20395;-72
2023/10/09 01:54:51;;;;;;;11.43;2.15;;;;;;;18.18;58.23;95420.19;5050423;28;20403;-72
2023/10/09 01:57:24;;;;;;;5.80;1.70;;;;;;;18.13;58.61;95415.59;5051242;28;20175;-72
2023/10/09 01:59:53;;;;;;;4.63;1.67;;;;;;;17.96;58.58;95410.28;5051029;28;20470;-72
2023/10/09 02:05:05;;;;;;;20.95;2.20;;;;;;;17.71;59.09;95429.31;5049993;28;20854;-71
2023/10/09 02:07:40;;;;;;;5.50;1.65;;;;;;;17.63;58.86;95435.03;5049796;28;20473;-71
2023/10/09 02:10:11;;;;;;;7.50;1.90;;;;;;;17.67;59.29;95435.34;5049467;28;20543;-71
2023/10/09 03:35:51;;;;;;;3.28;1.25;;;;;;;15.62;62.70;95511.94;5065459;28;20563;-70
2023/10/09 03:38:18;;;;;;;3.63;1.30;;;;;;;15.66;62.83;95515.75;5068614;28;20517;-70
2023/10/09 03:40:47;;;;;;;3.95;1.50;;;;;;;15.80;62.42;95518.00;5063442;28;20178;-70
2023/10/09 03:44:06;;;;;;;4.35;1.55;;;;;;;15.88;61.85;95519.53;5065366;28;20436;-70
2023/10/09 03:46:54;;;;;;;3.60;1.20;;;;;;;15.82;61.57;95515.94;5069773;28;20178;-70
2023/10/09 03:49:26;;;;;;;5.10;1.35;;;;;;;15.78;61.59;95522.72;5064527;28;20402;-69
2023/10/09 04:15:35;;;;;;;4.30;1.42;;;;;;;15.34;60.79;95526.56;5070125;28;20186;-70
2023/10/09 04:18:56;;;;;;;2.33;1.20;;;;;;;15.29;60.52;95523.78;5060116;28;20186;-70
2023/10/09 04:25:14;;;;;;;4.47;1.40;;;;;;;15.18;60.85;95540.44;5049943;28;20453;-70
2023/10/09 11:12:23;;;;;;;4.00;2.00;;;;;;;22.02;27.42;95462.66;5047744;28;20230;-71
2023/10/09 11:17:35;;;;;;;5.95;3.10;;;;;;;21.92;26.14;95430.44;5049519;28;20190;-72
2023/10/09 11:20:22;;;;;;;5.20;3.35;;;;;;;22.02;26.17;95441.19;5049329;28;20213;-72
2023/10/09 11:25:33;;;;;;;17.00;3.63;;;;;;;21.80;26.24;95424.50;5049597;28;20189;-72
2023/10/09 11:28:15;;;;;;;23.13;2.45;;;;;;;21.80;26.94;95421.81;5049339;28;20186;-72
2023/10/09 11:30:40;;;;;;;4.50;1.40;;;;;;;21.93;26.51;95424.00;5049415;28;20582;-72
2023/10/09 11:33:14;;;;;;;11.30;5.05;;;;;;;22.00;25.61;95431.78;5049125;28;20198;-72
2023/10/09 13:08:35;;;;;;;3.45;2.08;;;;;;;22.82;23.99;95291.84;5053037;28;20186;-71
2023/10/09 13:11:19;;;;;;;2.92;2.10;;;;;;;22.75;23.55;95287.81;5054847;28;20385;-71
2023/10/09 13:45:15;;;;;;;4.38;2.00;;;;;;;22.44;23.02;95257.63;5068242;28;20225;-72
2023/10/09 16:01:59;;;;;;;6.70;2.42;;;;;;;19.95;29.41;95187.91;5046936;28;20280;-71
2023/10/09 16:04:24;;;;;;;8.80;2.90;;;;;;;20.01;30.18;95182.56;5049188;28;20183;-71
2023/10/09 16:06:52;;;;;;;11.70;3.47;;;;;;;19.96;30.40;95178.81;5049026;28;20274;-72
2023/10/09 16:09:21;;;;;;;17.83;5.18;;;;;;;19.84;30.76;95186.25;5022571;28;21105;-71
2023/10/09 16:11:47;;;;;;;25.77;4.85;;;;;;;19.75;30.93;95181.66;5044070;28;20183;-71
2023/10/09 18:22:13;;;;;;;54.58;26.35;;;;;;;16.42;45.99;95133.09;5029580;28;20642;-71
2023/10/09 19:01:38;;;;;;;49.10;21.95;;;;;;;15.90;48.38;95151.03;5061060;28;20235;-70
2023/10/09 19:04:13;;;;;;;30.73;16.10;;;;;;;15.85;48.42;95153.56;5055390;28;20171;-69
2023/10/09 19:06:57;;;;;;;27.63;11.35;;;;;;;15.81;48.58;95158.56;5049831;28;20182;-70
2023/10/09 19:09:23;;;;;;;40.35;19.13;;;;;;;15.72;48.99;95153.84;5051651;28;20178;-70
2023/10/09 19:11:50;;;;;;;45.60;18.65;;;;;;;15.66;49.30;95152.09;5053850;28;20716;-71
2023/10/09 19:14:18;;;;;;;44.90;17.55;;;;;;;15.62;49.70;95145.66;5058962;28;20552;-71
2023/10/09 19:16:46;;;;;;;36.83;16.20;;;;;;;15.58;49.93;95133.91;5064471;28;20163;-72
2023/10/09 19:19:12;;;;;;;33.47;9.77;;;;;;;15.57;49.44;95148.22;5055361;28;20946;-71
2023/10/09 19:21:38;;;;;;;44.67;18.20;;;;;;;15.55;49.82;95143.16;5057476;28;20171;-70
2023/10/09 19:24:11;;;;;;;50.05;22.05;;;;;;;15.46;50.06;95137.38;5046026;28;20210;-71
2023/10/09 19:26:38;;;;;;;38.08;11.98;;;;;;;15.49;49.77;95150.16;5051777;28;20193;-71
2023/10/09 19:29:06;;;;;;;32.78;10.70;;;;;;;15.44;49.88;95155.38;5061811;28;20320;-71
2023/10/09 19:31:32;;;;;;;27.80;9.60;;;;;;;15.36;50.42;95147.75;5058541;28;20302;-71
2023/10/09 19:33:59;;;;;;;48.00;13.10;;;;;;;15.25;50.58;95158.38;5054504;28;20682;-71
2023/10/09 19:36:26;;;;;;;45.55;11.85;;;;;;;15.18;51.10;95153.19;5033458;28;20175;-72
2023/10/09 19:38:52;;;;;;;46.90;11.63;;;;;;;15.15;51.52;95163.44;5054045;28;20251;-71
2023/10/09 19:41:19;;;;;;;38.70;10.95;;;;;;;15.06;52.42;95173.59;5059313;28;20221;-71
2023/10/09 19:43:47;;;;;;;43.63;11.00;;;;;;;15.00;52.48;95180.66;5059279;28;20269;-70
2023/10/09 19:46:14;;;;;;;30.00;10.27;;;;;;;14.93;52.15;95177.31;5033493;28;20321;-72
2023/10/09 19:48:46;;;;;;;32.42;10.07;;;;;;;14.92;52.37;95182.81;5061039;28;20523;-72
2023/10/09 19:51:17;;;;;;;37.90;9.48;;;;;;;14.91;52.53;95187.31;5062256;28;20670;-72
2023/10/09 19:53:44;;;;;;;32.28;10.52;;;;;;;14.91;52.53;95184.66;5057545;28;20720;-73
2023/10/09 19:56:10;;;;;;;29.55;9.77;;;;;;;14.89;52.51;95177.97;5064278;28;20262;-73
2023/10/09 19:58:39;;;;;;;23.45;9.50;;;;;;;14.88;52.18;95179.00;5051273;28;20244;-74
2023/10/09 20:01:12;;;;;;;24.88;9.57;;;;;;;14.77;52.26;95187.78;5059371;28;20414;-74
2023/10/09 20:03:38;;;;;;;24.77;9.23;;;;;;;14.75;52.40;95180.03;5056548;28;20190;-74
2023/10/09 20:06:04;;;;;;;26.65;12.85;;;;;;;14.74;52.60;95178.44;5054396;28;20622;-75
2023/10/09 20:08:33;;;;;;;39.58;19.13;;;;;;;14.74;52.63;95175.78;5037954;28;20419;-73
2023/10/09 20:11:06;;;;;;;44.85;19.15;;;;;;;14.75;52.80;95168.63;5069794;28;20347;-74
2023/10/09 20:13:33;;;;;;;39.83;17.30;;;;;;;14.77;53.22;95185.94;5062997;28;20429;-72
2023/10/09 20:15:59;;;;;;;31.13;15.75;;;;;;;14.79;53.04;95183.06;5057387;28;20163;-75
2023/10/09 20:18:24;;;;;;;33.55;15.85;;;;;;;14.74;53.25;95186.38;5036264;28;20204;-74
2023/10/09 20:20:50;;;;;;;33.60;16.17;;;;;;;14.75;53.20;95184.53;5060388;28;20250;-74
2023/10/09 20:23:20;;;;;;;32.33;13.25;;;;;;;14.69;53.88;95173.00;5059336;28;20214;-74
2023/10/09 20:25:46;;;;;;;32.33;11.95;;;;;;;14.57;53.98;95162.38;5059477;28;20170;-74
2023/10/09 20:28:12;;;;;;;35.90;13.15;;;;;;;14.48;53.69;95158.44;5056089;28;20182;-74
2023/10/09 20:30:37;;;;;;;29.95;10.75;;;;;;;14.56;54.25;95176.66;5068136;28;20265;-74
2023/10/09 20:33:03;;;;;;;30.95;11.43;;;;;;;14.56;55.04;95181.97;5061266;28;20388;-70
2023/10/09 20:35:29;;;;;;;33.15;13.77;;;;;;;14.30;54.53;95142.59;5043504;28;20179;-72
2023/10/09 20:37:55;;;;;;;36.20;12.43;;;;;;;14.28;55.00;95166.66;5064151;28;20162;-71
2023/10/09 20:40:24;;;;;;;25.27;11.00;;;;;;;14.37;55.06;95193.63;5054083;28;20725;-71
2023/10/09 20:42:50;;;;;;;26.25;11.40;;;;;;;14.35;55.61;95195.72;5066723;28;20184;-72
2023/10/09 20:45:17;;;;;;;27.95;10.05;;;;;;;14.28;55.92;95185.19;5058705;28;20171;-71
2023/10/09 20:47:48;;;;;;;33.03;13.55;;;;;;;14.19;55.80;95186.53;5059352;28;20246;-72
2023/10/09 20:50:16;;;;;;;35.65;12.25;;;;;;;14.10;56.18;95171.19;5066805;28;20170;-71
2023/10/09 20:52:45;;;;;;;38.83;12.13;;;;;;;14.16;56.43;95187.00;5053943;28;20174;-71
2023/10/09 20:55:11;;;;;;;20.42;11.20;;;;;;;14.19;56.43;95202.41;5063525;28;20585;-72
2023/10/09 20:57:37;;;;;;;44.80;10.70;;;;;;;14.18;56.80;95200.03;5041069;28;20171;-72
2023/10/09 21:00:03;;;;;;;35.38;11.98;;;;;;;14.15;56.94;95203.09;5065309;28;20584;-71
2023/10/09 21:02:29;;;;;;;46.67;19.27;;;;;;;14.10;57.16;95198.47;5066518;28;20177;-71
2023/10/09 21:15:30;;;;;;;45.63;14.60;;;;;;;14.60;56.04;95199.03;5031874;28;20266;-73
2023/10/09 21:17:56;;;;;;;43.35;17.35;;;;;;;14.39;56.84;95182.84;5031383;28;20447;-73
2023/10/09 21:20:28;;;;;;;32.17;13.17;;;;;;;14.16;57.26;95159.72;5050225;28;20447;-74
2023/10/09 21:22:54;;;;;;;27.52;13.50;;;;;;;14.18;57.46;95174.31;5049507;28;20494;-73
2023/10/09 21:25:24;;;;;;;36.05;16.80;;;;;;;14.20;57.74;95177.56;5050620;28;20167;-74
2023/10/09 21:27:56;;;;;;;39.40;17.88;;;;;;;14.22;57.85;95182.63;5051038;28;20262;-73
2023/10/09 21:30:25;;;;;;;44.65;16.00;;;;;;;14.23;58.05;95182.41;5051039;28;20311;-76
2023/10/09 21:32:53;;;;;;;51.22;21.90;;;;;;;14.20;57.49;95179.41;5049656;28;20418;-76
2023/10/09 21:35:19;;;;;;;63.38;24.38;;;;;;;14.21;58.19;95181.03;5051250;28;20174;-74
2023/10/09 23:53:04;;;;;;;10.47;5.20;;;;;;;14.01;60.81;95144.22;5028048;28;20448;-73
2023/10/09 23:55:31;;;;;;;11.73;5.43;;;;;;;14.07;60.75;95145.19;5029394;28;20270;-73
2023/10/09 23:58:14;;;;;;;12.30;5.15;;;;;;;14.17;60.45;95148.09;5029281;28;20259;-74
